sensor_id;sensor_type;location;lat;lon;timestamp;P1;durP1;ratioP1;P2;durP2;ratioP2
19089;SDS011;9677;50.656;13.064;2022-12-28T00:02:15;11.33;;;10.37;;
19089;SDS011;9677;50.656;13.064;2022-12-28T00:04:45;11.50;;;10.60;;
19089;SDS011;9677;50.656;13.064;2022-12-28T00:07:13;12.43;;;11.33;;
19089;SDS011;9677;50.656;13.064;2022-12-28T00:09:43;11.30;;;10.40;;
19089;SDS011;9677;50.656;13.064;2022-12-28T00:12:11;11.57;;;10.57;;
19089;SDS011;9677;50.656;13.064;2022-12-28T00:14:39;12.50;;;11.50;;
19089;SDS011;9677;50.656;13.064;2022-12-28T00:17:11;12.83;;;11.53;;
19089;SDS011;9677;50.656;13.064;2022-12-28T00:19:40;11.80;;;10.70;;
19089;SDS011;9677;50.656;13.064;2022-12-28T00:22:09;12.77;;;11.77;;
19089;SDS011;9677;50.656;13.064;2022-12-28T00:24:38;11.97;;;10.97;;
19089;SDS011;9677;50.656;13.064;2022-12-28T00:27:06;11.67;;;10.67;;
19089;SDS011;9677;50.656;13.064;2022-12-28T00:29:35;12.20;;;11.20;;
19089;SDS011;9677;50.656;13.064;2022-12-28T00:32:04;11.67;;;10.67;;
19089;SDS011;9677;50.656;13.064;2022-12-28T00:34:33;11.70;;;10.70;;
19089;SDS011;9677;50.656;13.064;2022-12-28T00:37:01;11.40;;;10.50;;
19089;SDS011;9677;50.656;13.064;2022-12-28T00:39:38;11.33;;;10.33;;
19089;SDS011;9677;50.656;13.064;2022-12-28T00:42:08;12.17;;;11.17;;
19089;SDS011;9677;50.656;13.064;2022-12-28T00:44:37;11.57;;;10.57;;
19089;SDS011;9677;50.656;13.064;2022-12-28T00:47:06;11.67;;;10.67;;
19089;SDS011;9677;50.656;13.064;2022-12-28T00:49:37;12.23;;;11.13;;
19089;SDS011;9677;50.656;13.064;2022-12-28T00:52:06;11.47;;;10.57;;
19089;SDS011;9677;50.656;13.064;2022-12-28T00:54:35;11.93;;;10.93;;
19089;SDS011;9677;50.656;13.064;2022-12-28T00:57:05;11.90;;;10.90;;
19089;SDS011;9677;50.656;13.064;2022-12-28T00:59:33;11.37;;;10.43;;
19089;SDS011;9677;50.656;13.064;2022-12-28T01:02:02;12.33;;;11.13;;
19089;SDS011;9677;50.656;13.064;2022-12-28T01:04:30;11.20;;;10.20;;
19089;SDS011;9677;50.656;13.064;2022-12-28T01:06:59;11.30;;;10.40;;
19089;SDS011;9677;50.656;13.064;2022-12-28T01:09:29;11.43;;;10.53;;
19089;SDS011;9677;50.656;13.064;2022-12-28T01:11:59;11.60;;;10.60;;
19089;SDS011;9677;50.656;13.064;2022-12-28T01:14:28;11.97;;;11.07;;
19089;SDS011;9677;50.656;13.064;2022-12-28T01:16:57;11.93;;;10.93;;
19089;SDS011;9677;50.656;13.064;2022-12-28T01:19:25;11.90;;;10.90;;
19089;SDS011;9677;50.656;13.064;2022-12-28T01:21:54;12.20;;;11.10;;
19089;SDS011;9677;50.656;13.064;2022-12-28T01:24:23;12.20;;;11.20;;
19089;SDS011;9677;50.656;13.064;2022-12-28T01:26:51;12.20;;;11.10;;
19089;SDS011;9677;50.656;13.064;2022-12-28T01:29:22;12.07;;;11.00;;
19089;SDS011;9677;50.656;13.064;2022-12-28T01:31:50;11.93;;;10.93;;
19089;SDS011;9677;50.656;13.064;2022-12-28T01:34:19;11.73;;;10.73;;
19089;SDS011;9677;50.656;13.064;2022-12-28T01:36:47;11.93;;;10.93;;
19089;SDS011;9677;50.656;13.064;2022-12-28T01:39:16;11.80;;;10.80;;
19089;SDS011;9677;50.656;13.064;2022-12-28T01:41:44;11.80;;;10.80;;
19089;SDS011;9677;50.656;13.064;2022-12-28T01:47:13;11.97;;;11.03;;
19089;SDS011;9677;50.656;13.064;2022-12-28T01:49:56;11.80;;;10.90;;
19089;SDS011;9677;50.656;13.064;2022-12-28T01:52:29;12.27;;;11.27;;
19089;SDS011;9677;50.656;13.064;2022-12-28T01:55:04;11.80;;;10.70;;
19089;SDS011;9677;50.656;13.064;2022-12-28T01:57:38;12.43;;;11.43;;
19089;SDS011;9677;50.656;13.064;2022-12-28T02:00:13;11.40;;;10.50;;
19089;SDS011;9677;50.656;13.064;2022-12-28T02:02:44;12.03;;;11.03;;
19089;SDS011;9677;50.656;13.064;2022-12-28T02:05:17;11.60;;;10.60;;
19089;SDS011;9677;50.656;13.064;2022-12-28T02:07:50;12.47;;;11.47;;
19089;SDS011;9677;50.656;13.064;2022-12-28T02:10:22;11.70;;;10.70;;
19089;SDS011;9677;50.656;13.064;2022-12-28T02:13:11;11.97;;;10.90;;
19089;SDS011;9677;50.656;13.064;2022-12-28T02:15:43;12.43;;;11.33;;
19089;SDS011;9677;50.656;13.064;2022-12-28T02:18:12;12.20;;;11.20;;
19089;SDS011;9677;50.656;13.064;2022-12-28T02:20:46;11.57;;;10.57;;
19089;SDS011;9677;50.656;13.064;2022-12-28T02:23:36;12.03;;;11.03;;
19089;SDS011;9677;50.656;13.064;2022-12-28T02:26:37;12.90;;;11.80;;
19089;SDS011;9677;50.656;13.064;2022-12-28T02:32:21;11.83;;;10.83;;
19089;SDS011;9677;50.656;13.064;2022-12-28T02:35:14;11.90;;;11.00;;
19089;SDS011;9677;50.656;13.064;2022-12-28T02:37:52;11.60;;;10.60;;
19089;SDS011;9677;50.656;13.064;2022-12-28T02:40:25;11.83;;;10.83;;
19089;SDS011;9677;50.656;13.064;2022-12-28T02:42:59;12.10;;;11.10;;
19089;SDS011;9677;50.656;13.064;2022-12-28T02:45:31;12.03;;;11.03;;
19089;SDS011;9677;50.656;13.064;2022-12-28T02:48:20;11.63;;;10.73;;
19089;SDS011;9677;50.656;13.064;2022-12-28T02:54:16;11.30;;;10.40;;
19089;SDS011;9677;50.656;13.064;2022-12-28T02:57:29;11.13;;;10.23;;
19089;SDS011;9677;50.656;13.064;2022-12-28T03:00:19;12.60;;;11.60;;
19089;SDS011;9677;50.656;13.064;2022-12-28T03:02:58;11.17;;;10.27;;
19089;SDS011;9677;50.656;13.064;2022-12-28T03:05:44;11.73;;;10.83;;
19089;SDS011;9677;50.656;13.064;2022-12-28T03:08:48;11.57;;;10.57;;
19089;SDS011;9677;50.656;13.064;2022-12-28T03:11:25;11.97;;;11.00;;
19089;SDS011;9677;50.656;13.064;2022-12-28T03:14:05;11.33;;;10.40;;
19089;SDS011;9677;50.656;13.064;2022-12-28T03:16:37;12.40;;;11.40;;
19089;SDS011;9677;50.656;13.064;2022-12-28T03:19:30;11.53;;;10.60;;
19089;SDS011;9677;50.656;13.064;2022-12-28T03:22:35;12.60;;;11.60;;
19089;SDS011;9677;50.656;13.064;2022-12-28T03:25:24;11.73;;;10.83;;
19089;SDS011;9677;50.656;13.064;2022-12-28T03:28:28;11.83;;;10.83;;
19089;SDS011;9677;50.656;13.064;2022-12-28T03:31:19;11.80;;;10.90;;
19089;SDS011;9677;50.656;13.064;2022-12-28T03:33:54;11.57;;;10.60;;
19089;SDS011;9677;50.656;13.064;2022-12-28T03:36:45;12.30;;;11.30;;
19089;SDS011;9677;50.656;13.064;2022-12-28T03:39:26;13.20;;;10.63;;
19089;SDS011;9677;50.656;13.064;2022-12-28T03:42:09;13.20;;;12.10;;
19089;SDS011;9677;50.656;13.064;2022-12-28T03:45:01;11.20;;;10.30;;
19089;SDS011;9677;50.656;13.064;2022-12-28T03:47:36;11.70;;;10.70;;
19089;SDS011;9677;50.656;13.064;2022-12-28T03:50:08;12.23;;;11.07;;
19089;SDS011;9677;50.656;13.064;2022-12-28T03:52:39;11.40;;;10.30;;
19089;SDS011;9677;50.656;13.064;2022-12-28T03:55:09;11.73;;;10.73;;
19089;SDS011;9677;50.656;13.064;2022-12-28T03:57:38;11.83;;;10.87;;
19089;SDS011;9677;50.656;13.064;2022-12-28T04:00:13;12.07;;;10.80;;
19089;SDS011;9677;50.656;13.064;2022-12-28T04:02:42;12.23;;;11.13;;
19089;SDS011;9677;50.656;13.064;2022-12-28T04:05:11;11.70;;;10.73;;
19089;SDS011;9677;50.656;13.064;2022-12-28T04:07:43;11.73;;;10.73;;
19089;SDS011;9677;50.656;13.064;2022-12-28T04:10:11;11.27;;;10.27;;
19089;SDS011;9677;50.656;13.064;2022-12-28T04:12:40;11.43;;;10.50;;
19089;SDS011;9677;50.656;13.064;2022-12-28T04:15:22;11.53;;;10.53;;
19089;SDS011;9677;50.656;13.064;2022-12-28T04:17:51;12.40;;;11.20;;
19089;SDS011;9677;50.656;13.064;2022-12-28T04:20:19;11.70;;;10.70;;
19089;SDS011;9677;50.656;13.064;2022-12-28T04:22:50;12.10;;;11.10;;
19089;SDS011;9677;50.656;13.064;2022-12-28T04:25:18;11.67;;;10.77;;
19089;SDS011;9677;50.656;13.064;2022-12-28T04:27:47;11.77;;;10.87;;
19089;SDS011;9677;50.656;13.064;2022-12-28T04:30:43;11.20;;;10.30;;
19089;SDS011;9677;50.656;13.064;2022-12-28T04:33:11;12.17;;;11.17;;
19089;SDS011;9677;50.656;13.064;2022-12-28T04:35:44;11.80;;;10.90;;
19089;SDS011;9677;50.656;13.064;2022-12-28T04:38:13;11.20;;;10.20;;
19089;SDS011;9677;50.656;13.064;2022-12-28T04:40:42;11.90;;;10.83;;
19089;SDS011;9677;50.656;13.064;2022-12-28T04:43:10;12.03;;;11.03;;
19089;SDS011;9677;50.656;13.064;2022-12-28T04:45:39;10.87;;;9.97;;
19089;SDS011;9677;50.656;13.064;2022-12-28T04:48:07;11.10;;;10.20;;
19089;SDS011;9677;50.656;13.064;2022-12-28T04:50:35;11.70;;;10.80;;
19089;SDS011;9677;50.656;13.064;2022-12-28T04:53:04;12.13;;;11.13;;
19089;SDS011;9677;50.656;13.064;2022-12-28T04:55:34;11.80;;;10.80;;
19089;SDS011;9677;50.656;13.064;2022-12-28T04:58:02;12.17;;;11.17;;
19089;SDS011;9677;50.656;13.064;2022-12-28T05:00:30;11.80;;;10.70;;
19089;SDS011;9677;50.656;13.064;2022-12-28T05:02:59;11.73;;;10.73;;
19089;SDS011;9677;50.656;13.064;2022-12-28T05:05:30;11.80;;;10.80;;
19089;SDS011;9677;50.656;13.064;2022-12-28T05:07:59;11.50;;;10.50;;
19089;SDS011;9677;50.656;13.064;2022-12-28T05:10:28;11.20;;;10.30;;
19089;SDS011;9677;50.656;13.064;2022-12-28T05:12:58;11.63;;;10.63;;
19089;SDS011;9677;50.656;13.064;2022-12-28T05:15:26;12.90;;;11.70;;
19089;SDS011;9677;50.656;13.064;2022-12-28T05:17:54;11.63;;;10.63;;
19089;SDS011;9677;50.656;13.064;2022-12-28T05:20:23;11.10;;;10.20;;
19089;SDS011;9677;50.656;13.064;2022-12-28T05:22:51;11.60;;;10.60;;
19089;SDS011;9677;50.656;13.064;2022-12-28T05:25:19;11.30;;;10.30;;
19089;SDS011;9677;50.656;13.064;2022-12-28T05:27:48;11.30;;;10.40;;
19089;SDS011;9677;50.656;13.064;2022-12-28T05:30:17;11.37;;;10.40;;
19089;SDS011;9677;50.656;13.064;2022-12-28T05:32:46;12.37;;;11.37;;
19089;SDS011;9677;50.656;13.064;2022-12-28T05:35:14;11.77;;;10.87;;
19089;SDS011;9677;50.656;13.064;2022-12-28T05:37:42;11.50;;;10.60;;
19089;SDS011;9677;50.656;13.064;2022-12-28T05:40:11;11.30;;;10.30;;
19089;SDS011;9677;50.656;13.064;2022-12-28T05:42:39;11.77;;;10.77;;
19089;SDS011;9677;50.656;13.064;2022-12-28T05:45:17;11.00;;;10.00;;
19089;SDS011;9677;50.656;13.064;2022-12-28T05:47:46;12.43;;;11.13;;
19089;SDS011;9677;50.656;13.064;2022-12-28T05:50:14;11.77;;;10.87;;
19089;SDS011;9677;50.656;13.064;2022-12-28T05:52:42;11.87;;;10.87;;
19089;SDS011;9677;50.656;13.064;2022-12-28T05:55:11;11.40;;;10.50;;
19089;SDS011;9677;50.656;13.064;2022-12-28T05:57:39;11.17;;;10.17;;
19089;SDS011;9677;50.656;13.064;2022-12-28T06:00:08;11.77;;;10.77;;
19089;SDS011;9677;50.656;13.064;2022-12-28T06:02:39;12.20;;;11.20;;
19089;SDS011;9677;50.656;13.064;2022-12-28T06:05:08;12.50;;;11.40;;
19089;SDS011;9677;50.656;13.064;2022-12-28T06:07:36;11.93;;;10.93;;
19089;SDS011;9677;50.656;13.064;2022-12-28T06:10:05;11.97;;;10.97;;
19089;SDS011;9677;50.656;13.064;2022-12-28T06:12:34;11.80;;;10.80;;
19089;SDS011;9677;50.656;13.064;2022-12-28T06:15:03;12.53;;;11.53;;
19089;SDS011;9677;50.656;13.064;2022-12-28T06:17:32;11.50;;;10.60;;
19089;SDS011;9677;50.656;13.064;2022-12-28T06:20:02;11.77;;;10.83;;
19089;SDS011;9677;50.656;13.064;2022-12-28T06:22:31;11.90;;;10.90;;
19089;SDS011;9677;50.656;13.064;2022-12-28T06:24:59;11.70;;;10.60;;
19089;SDS011;9677;50.656;13.064;2022-12-28T06:27:28;12.70;;;11.60;;
19089;SDS011;9677;50.656;13.064;2022-12-28T06:29:56;12.43;;;11.43;;
19089;SDS011;9677;50.656;13.064;2022-12-28T06:32:24;12.00;;;11.00;;
19089;SDS011;9677;50.656;13.064;2022-12-28T06:34:53;11.47;;;10.57;;
19089;SDS011;9677;50.656;13.064;2022-12-28T06:37:22;11.67;;;10.67;;
19089;SDS011;9677;50.656;13.064;2022-12-28T06:39:50;12.27;;;11.10;;
19089;SDS011;9677;50.656;13.064;2022-12-28T06:42:19;11.10;;;10.20;;
19089;SDS011;9677;50.656;13.064;2022-12-28T06:44:47;11.40;;;10.47;;
19089;SDS011;9677;50.656;13.064;2022-12-28T06:47:15;11.97;;;10.97;;
19089;SDS011;9677;50.656;13.064;2022-12-28T06:49:44;11.50;;;10.60;;
19089;SDS011;9677;50.656;13.064;2022-12-28T06:52:12;11.57;;;10.47;;
19089;SDS011;9677;50.656;13.064;2022-12-28T06:54:42;12.17;;;11.17;;
19089;SDS011;9677;50.656;13.064;2022-12-28T06:57:10;12.07;;;11.07;;
19089;SDS011;9677;50.656;13.064;2022-12-28T06:59:38;11.33;;;10.43;;
19089;SDS011;9677;50.656;13.064;2022-12-28T07:02:07;11.40;;;10.30;;
19089;SDS011;9677;50.656;13.064;2022-12-28T07:04:36;11.43;;;10.53;;
19089;SDS011;9677;50.656;13.064;2022-12-28T07:07:04;11.87;;;10.87;;
19089;SDS011;9677;50.656;13.064;2022-12-28T07:09:35;11.33;;;10.43;;
19089;SDS011;9677;50.656;13.064;2022-12-28T07:12:06;13.77;;;11.37;;
19089;SDS011;9677;50.656;13.064;2022-12-28T07:14:34;12.50;;;11.50;;
19089;SDS011;9677;50.656;13.064;2022-12-28T07:17:02;11.63;;;10.53;;
19089;SDS011;9677;50.656;13.064;2022-12-28T07:19:31;11.37;;;10.43;;
19089;SDS011;9677;50.656;13.064;2022-12-28T07:21:59;11.97;;;10.97;;
19089;SDS011;9677;50.656;13.064;2022-12-28T07:24:29;11.20;;;10.23;;
19089;SDS011;9677;50.656;13.064;2022-12-28T07:26:57;11.40;;;10.33;;
19089;SDS011;9677;50.656;13.064;2022-12-28T07:29:26;11.33;;;10.43;;
19089;SDS011;9677;50.656;13.064;2022-12-28T07:31:55;10.77;;;9.87;;
19089;SDS011;9677;50.656;13.064;2022-12-28T07:34:23;11.13;;;10.23;;
19089;SDS011;9677;50.656;13.064;2022-12-28T07:36:51;11.47;;;10.47;;
19089;SDS011;9677;50.656;13.064;2022-12-28T07:39:20;11.40;;;10.50;;
19089;SDS011;9677;50.656;13.064;2022-12-28T07:41:48;11.37;;;10.37;;
19089;SDS011;9677;50.656;13.064;2022-12-28T07:44:20;11.63;;;10.63;;
19089;SDS011;9677;50.656;13.064;2022-12-28T07:46:56;11.90;;;10.93;;
19089;SDS011;9677;50.656;13.064;2022-12-28T07:49:24;11.33;;;10.43;;
19089;SDS011;9677;50.656;13.064;2022-12-28T07:51:52;12.00;;;11.00;;
19089;SDS011;9677;50.656;13.064;2022-12-28T07:54:21;11.80;;;10.80;;
19089;SDS011;9677;50.656;13.064;2022-12-28T07:56:49;11.77;;;10.77;;
19089;SDS011;9677;50.656;13.064;2022-12-28T07:59:17;11.40;;;10.40;;
19089;SDS011;9677;50.656;13.064;2022-12-28T08:01:50;11.00;;;10.10;;
19089;SDS011;9677;50.656;13.064;2022-12-28T08:04:19;12.33;;;11.27;;
19089;SDS011;9677;50.656;13.064;2022-12-28T08:06:48;11.30;;;10.30;;
19089;SDS011;9677;50.656;13.064;2022-12-28T08:09:16;11.17;;;10.27;;
19089;SDS011;9677;50.656;13.064;2022-12-28T08:11:44;11.70;;;10.70;;
19089;SDS011;9677;50.656;13.064;2022-12-28T08:14:15;11.80;;;10.80;;
19089;SDS011;9677;50.656;13.064;2022-12-28T08:16:43;11.13;;;10.20;;
19089;SDS011;9677;50.656;13.064;2022-12-28T08:19:12;11.07;;;10.07;;
19089;SDS011;9677;50.656;13.064;2022-12-28T08:21:43;11.60;;;10.60;;
19089;SDS011;9677;50.656;13.064;2022-12-28T08:24:12;11.33;;;10.43;;
19089;SDS011;9677;50.656;13.064;2022-12-28T08:26:43;11.53;;;10.53;;
19089;SDS011;9677;50.656;13.064;2022-12-28T08:29:14;12.40;;;11.30;;
19089;SDS011;9677;50.656;13.064;2022-12-28T08:31:45;11.77;;;10.77;;
19089;SDS011;9677;50.656;13.064;2022-12-28T08:34:14;12.77;;;11.57;;
19089;SDS011;9677;50.656;13.064;2022-12-28T08:36:46;11.33;;;10.33;;
19089;SDS011;9677;50.656;13.064;2022-12-28T08:39:14;11.40;;;10.40;;
19089;SDS011;9677;50.656;13.064;2022-12-28T08:41:42;11.87;;;10.60;;
19089;SDS011;9677;50.656;13.064;2022-12-28T08:44:11;11.87;;;10.73;;
19089;SDS011;9677;50.656;13.064;2022-12-28T08:46:39;12.17;;;11.07;;
19089;SDS011;9677;50.656;13.064;2022-12-28T08:49:08;11.73;;;10.53;;
19089;SDS011;9677;50.656;13.064;2022-12-28T08:51:37;11.53;;;10.53;;
19089;SDS011;9677;50.656;13.064;2022-12-28T08:54:09;11.73;;;10.73;;
19089;SDS011;9677;50.656;13.064;2022-12-28T08:56:40;11.87;;;10.87;;
19089;SDS011;9677;50.656;13.064;2022-12-28T08:59:10;11.33;;;10.33;;
19089;SDS011;9677;50.656;13.064;2022-12-28T09:01:41;11.47;;;10.47;;
19089;SDS011;9677;50.656;13.064;2022-12-28T09:04:11;10.93;;;9.97;;
19089;SDS011;9677;50.656;13.064;2022-12-28T09:06:41;11.00;;;10.00;;
19089;SDS011;9677;50.656;13.064;2022-12-28T09:09:12;11.20;;;10.20;;
19089;SDS011;9677;50.656;13.064;2022-12-28T09:11:43;11.00;;;10.00;;
19089;SDS011;9677;50.656;13.064;2022-12-28T09:14:12;11.97;;;10.77;;
19089;SDS011;9677;50.656;13.064;2022-12-28T09:16:48;10.70;;;9.70;;
19089;SDS011;9677;50.656;13.064;2022-12-28T09:19:18;10.57;;;9.67;;
19089;SDS011;9677;50.656;13.064;2022-12-28T09:21:47;10.93;;;9.83;;
19089;SDS011;9677;50.656;13.064;2022-12-28T09:24:19;11.47;;;10.47;;
19089;SDS011;9677;50.656;13.064;2022-12-28T09:26:48;11.57;;;10.50;;
19089;SDS011;9677;50.656;13.064;2022-12-28T09:29:18;11.00;;;10.10;;
19089;SDS011;9677;50.656;13.064;2022-12-28T09:31:47;11.50;;;10.60;;
19089;SDS011;9677;50.656;13.064;2022-12-28T09:34:16;11.23;;;10.23;;
19089;SDS011;9677;50.656;13.064;2022-12-28T09:37:03;10.70;;;9.70;;
19089;SDS011;9677;50.656;13.064;2022-12-28T09:39:33;10.33;;;9.43;;
19089;SDS011;9677;50.656;13.064;2022-12-28T09:42:02;11.03;;;10.13;;
19089;SDS011;9677;50.656;13.064;2022-12-28T09:44:37;11.10;;;10.10;;
19089;SDS011;9677;50.656;13.064;2022-12-28T09:47:15;10.97;;;9.90;;
19089;SDS011;9677;50.656;13.064;2022-12-28T09:49:56;11.47;;;10.47;;
19089;SDS011;9677;50.656;13.064;2022-12-28T09:52:34;10.80;;;9.90;;
19089;SDS011;9677;50.656;13.064;2022-12-28T09:55:15;10.87;;;9.97;;
19089;SDS011;9677;50.656;13.064;2022-12-28T09:57:46;11.50;;;10.50;;
19089;SDS011;9677;50.656;13.064;2022-12-28T10:00:19;10.77;;;9.87;;
19089;SDS011;9677;50.656;13.064;2022-12-28T10:02:51;11.30;;;10.30;;
19089;SDS011;9677;50.656;13.064;2022-12-28T10:05:24;10.80;;;9.90;;
19089;SDS011;9677;50.656;13.064;2022-12-28T10:07:53;11.13;;;10.13;;
19089;SDS011;9677;50.656;13.064;2022-12-28T10:10:26;10.83;;;9.83;;
19089;SDS011;9677;50.656;13.064;2022-12-28T10:12:56;11.33;;;10.33;;
19089;SDS011;9677;50.656;13.064;2022-12-28T10:15:54;11.30;;;10.30;;
19089;SDS011;9677;50.656;13.064;2022-12-28T10:18:24;10.93;;;10.00;;
19089;SDS011;9677;50.656;13.064;2022-12-28T10:20:54;11.03;;;10.03;;
19089;SDS011;9677;50.656;13.064;2022-12-28T10:23:23;11.00;;;10.03;;
19089;SDS011;9677;50.656;13.064;2022-12-28T10:25:56;10.90;;;10.00;;
19089;SDS011;9677;50.656;13.064;2022-12-28T10:28:30;10.43;;;9.47;;
19089;SDS011;9677;50.656;13.064;2022-12-28T10:31:14;10.67;;;9.73;;
19089;SDS011;9677;50.656;13.064;2022-12-28T10:33:49;10.30;;;9.40;;
19089;SDS011;9677;50.656;13.064;2022-12-28T10:36:18;10.30;;;9.40;;
19089;SDS011;9677;50.656;13.064;2022-12-28T10:38:51;10.03;;;9.23;;
19089;SDS011;9677;50.656;13.064;2022-12-28T10:41:30;10.43;;;9.53;;
19089;SDS011;9677;50.656;13.064;2022-12-28T10:44:10;10.73;;;9.83;;
19089;SDS011;9677;50.656;13.064;2022-12-28T10:47:05;11.03;;;10.13;;
19089;SDS011;9677;50.656;13.064;2022-12-28T10:49:51;11.30;;;10.40;;
19089;SDS011;9677;50.656;13.064;2022-12-28T10:52:39;10.53;;;9.63;;
19089;SDS011;9677;50.656;13.064;2022-12-28T10:58:08;10.90;;;9.90;;
19089;SDS011;9677;50.656;13.064;2022-12-28T11:00:56;10.20;;;9.30;;
19089;SDS011;9677;50.656;13.064;2022-12-28T11:03:26;11.03;;;10.03;;
19089;SDS011;9677;50.656;13.064;2022-12-28T11:06:06;11.10;;;10.20;;
19089;SDS011;9677;50.656;13.064;2022-12-28T11:08:59;10.93;;;10.03;;
19089;SDS011;9677;50.656;13.064;2022-12-28T11:11:41;10.30;;;9.40;;
19089;SDS011;9677;50.656;13.064;2022-12-28T11:14:14;11.37;;;10.37;;
19089;SDS011;9677;50.656;13.064;2022-12-28T11:16:52;10.60;;;9.60;;
19089;SDS011;9677;50.656;13.064;2022-12-28T11:19:21;11.20;;;10.20;;
19089;SDS011;9677;50.656;13.064;2022-12-28T11:21:51;10.77;;;9.80;;
19089;SDS011;9677;50.656;13.064;2022-12-28T11:24:20;10.80;;;9.80;;
19089;SDS011;9677;50.656;13.064;2022-12-28T11:26:53;11.23;;;10.23;;
19089;SDS011;9677;50.656;13.064;2022-12-28T11:29:23;10.50;;;9.60;;
19089;SDS011;9677;50.656;13.064;2022-12-28T11:31:52;10.80;;;9.90;;
19089;SDS011;9677;50.656;13.064;2022-12-28T11:34:28;10.90;;;9.90;;
19089;SDS011;9677;50.656;13.064;2022-12-28T11:36:58;10.73;;;9.83;;
19089;SDS011;9677;50.656;13.064;2022-12-28T11:39:43;10.60;;;9.50;;
19089;SDS011;9677;50.656;13.064;2022-12-28T11:48:36;10.70;;;9.70;;
19089;SDS011;9677;50.656;13.064;2022-12-28T11:51:13;10.70;;;9.70;;
19089;SDS011;9677;50.656;13.064;2022-12-28T11:53:51;10.40;;;9.50;;
19089;SDS011;9677;50.656;13.064;2022-12-28T11:56:26;11.00;;;10.00;;
19089;SDS011;9677;50.656;13.064;2022-12-28T11:59:24;10.70;;;9.80;;
19089;SDS011;9677;50.656;13.064;2022-12-28T12:01:56;10.53;;;9.60;;
19089;SDS011;9677;50.656;13.064;2022-12-28T12:04:36;10.93;;;9.93;;
19089;SDS011;9677;50.656;13.064;2022-12-28T12:10:27;12.73;;;10.10;;
19089;SDS011;9677;50.656;13.064;2022-12-28T12:16:18;11.13;;;10.23;;
19089;SDS011;9677;50.656;13.064;2022-12-28T12:18:51;10.60;;;9.60;;
19089;SDS011;9677;50.656;13.064;2022-12-28T12:21:29;11.07;;;9.97;;
19089;SDS011;9677;50.656;13.064;2022-12-28T12:24:07;10.60;;;9.60;;
19089;SDS011;9677;50.656;13.064;2022-12-28T12:26:46;11.03;;;10.03;;
19089;SDS011;9677;50.656;13.064;2022-12-28T12:29:20;10.97;;;10.07;;
19089;SDS011;9677;50.656;13.064;2022-12-28T12:31:56;11.10;;;10.10;;
19089;SDS011;9677;50.656;13.064;2022-12-28T12:34:33;12.93;;;10.10;;
19089;SDS011;9677;50.656;13.064;2022-12-28T12:43:31;10.70;;;9.73;;
19089;SDS011;9677;50.656;13.064;2022-12-28T12:46:27;10.97;;;10.00;;
19089;SDS011;9677;50.656;13.064;2022-12-28T12:53:02;10.87;;;9.97;;
19089;SDS011;9677;50.656;13.064;2022-12-28T12:55:39;10.57;;;9.57;;
19089;SDS011;9677;50.656;13.064;2022-12-28T12:58:20;11.17;;;10.17;;
19089;SDS011;9677;50.656;13.064;2022-12-28T13:00:58;10.93;;;9.87;;
19089;SDS011;9677;50.656;13.064;2022-12-28T13:03:43;10.83;;;9.83;;
19089;SDS011;9677;50.656;13.064;2022-12-28T13:06:15;10.63;;;9.63;;
19089;SDS011;9677;50.656;13.064;2022-12-28T13:08:50;10.73;;;9.73;;
19089;SDS011;9677;50.656;13.064;2022-12-28T13:11:28;10.43;;;9.57;;
19089;SDS011;9677;50.656;13.064;2022-12-28T13:13:58;10.60;;;9.70;;
19089;SDS011;9677;50.656;13.064;2022-12-28T13:16:27;22.93;;;9.93;;
19089;SDS011;9677;50.656;13.064;2022-12-28T13:18:58;10.70;;;9.60;;
19089;SDS011;9677;50.656;13.064;2022-12-28T13:21:38;11.00;;;10.00;;
19089;SDS011;9677;50.656;13.064;2022-12-28T13:24:17;10.87;;;9.87;;
19089;SDS011;9677;50.656;13.064;2022-12-28T13:26:47;10.67;;;9.77;;
19089;SDS011;9677;50.656;13.064;2022-12-28T13:29:17;11.20;;;10.20;;
19089;SDS011;9677;50.656;13.064;2022-12-28T13:31:47;10.27;;;9.30;;
19089;SDS011;9677;50.656;13.064;2022-12-28T13:34:18;10.53;;;9.63;;
19089;SDS011;9677;50.656;13.064;2022-12-28T13:36:51;10.80;;;9.90;;
19089;SDS011;9677;50.656;13.064;2022-12-28T13:39:22;10.30;;;9.50;;
19089;SDS011;9677;50.656;13.064;2022-12-28T13:41:52;10.57;;;9.67;;
19089;SDS011;9677;50.656;13.064;2022-12-28T13:47:12;10.70;;;9.70;;
19089;SDS011;9677;50.656;13.064;2022-12-28T13:49:51;11.00;;;10.10;;
19089;SDS011;9677;50.656;13.064;2022-12-28T13:52:25;10.70;;;9.80;;
19089;SDS011;9677;50.656;13.064;2022-12-28T13:54:59;10.80;;;9.90;;
19089;SDS011;9677;50.656;13.064;2022-12-28T13:57:32;10.00;;;9.20;;
19089;SDS011;9677;50.656;13.064;2022-12-28T14:00:15;11.47;;;10.37;;
19089;SDS011;9677;50.656;13.064;2022-12-28T14:02:46;10.63;;;9.67;;
19089;SDS011;9677;50.656;13.064;2022-12-28T14:05:17;10.77;;;9.87;;
19089;SDS011;9677;50.656;13.064;2022-12-28T14:07:49;11.03;;;9.93;;
19089;SDS011;9677;50.656;13.064;2022-12-28T14:10:19;10.97;;;10.07;;
19089;SDS011;9677;50.656;13.064;2022-12-28T14:12:48;11.00;;;10.00;;
19089;SDS011;9677;50.656;13.064;2022-12-28T14:15:18;10.80;;;9.57;;
19089;SDS011;9677;50.656;13.064;2022-12-28T14:17:48;10.80;;;9.90;;
19089;SDS011;9677;50.656;13.064;2022-12-28T14:20:18;10.33;;;9.47;;
19089;SDS011;9677;50.656;13.064;2022-12-28T14:22:46;10.60;;;9.70;;
19089;SDS011;9677;50.656;13.064;2022-12-28T14:25:17;10.83;;;9.93;;
19089;SDS011;9677;50.656;13.064;2022-12-28T14:27:52;10.60;;;9.70;;
19089;SDS011;9677;50.656;13.064;2022-12-28T14:30:25;10.20;;;9.30;;
19089;SDS011;9677;50.656;13.064;2022-12-28T14:32:57;10.57;;;9.67;;
19089;SDS011;9677;50.656;13.064;2022-12-28T14:35:48;10.57;;;9.70;;
19089;SDS011;9677;50.656;13.064;2022-12-28T14:38:21;10.03;;;9.13;;
19089;SDS011;9677;50.656;13.064;2022-12-28T14:40:52;10.33;;;9.43;;
19089;SDS011;9677;50.656;13.064;2022-12-28T14:43:23;10.50;;;9.60;;
19089;SDS011;9677;50.656;13.064;2022-12-28T14:45:54;10.27;;;9.37;;
19089;SDS011;9677;50.656;13.064;2022-12-28T14:48:34;10.47;;;9.53;;
19089;SDS011;9677;50.656;13.064;2022-12-28T14:54:11;10.07;;;9.27;;
19089;SDS011;9677;50.656;13.064;2022-12-28T14:56:48;10.57;;;9.67;;
19089;SDS011;9677;50.656;13.064;2022-12-28T14:59:22;10.53;;;9.63;;
19089;SDS011;9677;50.656;13.064;2022-12-28T15:01:54;10.73;;;9.80;;
19089;SDS011;9677;50.656;13.064;2022-12-28T15:04:36;10.50;;;9.60;;
19089;SDS011;9677;50.656;13.064;2022-12-28T15:07:06;10.77;;;9.87;;
19089;SDS011;9677;50.656;13.064;2022-12-28T15:09:38;10.50;;;9.50;;
19089;SDS011;9677;50.656;13.064;2022-12-28T15:12:08;10.43;;;9.53;;
19089;SDS011;9677;50.656;13.064;2022-12-28T15:14:38;10.33;;;9.43;;
19089;SDS011;9677;50.656;13.064;2022-12-28T15:17:07;10.30;;;9.40;;
19089;SDS011;9677;50.656;13.064;2022-12-28T15:19:36;10.40;;;9.50;;
19089;SDS011;9677;50.656;13.064;2022-12-28T15:22:04;10.60;;;9.70;;
19089;SDS011;9677;50.656;13.064;2022-12-28T15:24:33;10.53;;;9.53;;
19089;SDS011;9677;50.656;13.064;2022-12-28T15:27:03;10.43;;;9.53;;
19089;SDS011;9677;50.656;13.064;2022-12-28T15:29:32;10.57;;;9.67;;
19089;SDS011;9677;50.656;13.064;2022-12-28T15:32:20;10.83;;;9.93;;
19089;SDS011;9677;50.656;13.064;2022-12-28T15:34:49;10.80;;;9.87;;
19089;SDS011;9677;50.656;13.064;2022-12-28T15:37:17;10.20;;;9.30;;
19089;SDS011;9677;50.656;13.064;2022-12-28T15:39:46;10.47;;;9.57;;
19089;SDS011;9677;50.656;13.064;2022-12-28T15:42:16;10.73;;;9.83;;